Time;durP1;ratioP1;P1;durP2;ratioP2;P2;SDS_P1;SDS_P2;PMS_P1;PMS_P2;Temp;Humidity;BMP_temperature;BMP_pressure;BME280_temperature;BME280_humidity;BME280_pressure;Samples;Min_cycle;Max_cycle;Signal;HPM_P1;HPM_P2
2021/01/09 00:02:07;;;;;;;;;;;4.00;81.70;;;;;;5031976;28;19913;-75
2021/01/09 00:04:33;;;;;;;;;;;4.00;81.70;;;;;;5045680;28;19952;-75
2021/01/09 00:06:59;;;;;;;;;;;4.00;81.70;;;;;;5048446;28;19998;-75
2021/01/09 00:09:24;;;;;;;;;;;3.90;81.70;;;;;;5029466;28;20342;-75
2021/01/09 00:11:50;;;;;;;;;;;4.00;81.70;;;;;;5035379;28;20340;-75
2021/01/09 00:14:18;;;;;;;;;;;3.90;81.70;;;;;;5051221;28;19939;-76
2021/01/09 00:16:45;;;;;;;;;;;4.00;81.70;;;;;;5051626;28;20365;-75
2021/01/09 00:19:11;;;;;;;;;;;3.90;81.70;;;;;;5035533;28;19917;-76
2021/01/09 00:21:37;;;;;;;;;;;3.90;81.70;;;;;;5052580;28;19959;-75
2021/01/09 00:24:04;;;;;;;;;;;3.90;81.70;;;;;;5035010;28;19955;-75
2021/01/09 00:26:29;;;;;;;;;;;3.90;81.70;;;;;;5044473;28;19909;-75
2021/01/09 00:28:55;;;;;;;;;;;3.90;81.70;;;;;;5035553;28;19924;-75
2021/01/09 00:31:21;;;;;;;;;;;3.90;81.70;;;;;;5046956;28;19913;-75
2021/01/09 00:33:47;;;;;;;;;;;3.90;81.70;;;;;;5026849;28;19992;-75
2021/01/09 00:36:13;;;;;;;;;;;3.80;81.70;;;;;;5048321;28;19944;-76
2021/01/09 00:38:38;;;;;;;;;;;3.80;81.70;;;;;;5020917;28;19916;-75
2021/01/09 00:41:04;;;;;;;;;;;3.90;81.70;;;;;;5023179;28;20004;-76
2021/01/09 00:43:29;;;;;;;;;;;3.80;81.70;;;;;;5018812;28;19916;-75
2021/01/09 00:45:55;;;;;;;;;;;3.80;81.70;;;;;;5036249;28;20396;-75
2021/01/09 00:48:21;;;;;;;;;;;3.80;81.70;;;;;;5030330;28;20385;-75
2021/01/09 00:50:46;;;;;;;;;;;3.80;81.70;;;;;;5042978;28;19917;-75
2021/01/09 00:53:12;;;;;;;;;;;3.80;81.70;;;;;;5018372;28;19908;-75
2021/01/09 00:55:38;;;;;;;;;;;3.80;81.70;;;;;;5050285;28;20004;-75
2021/01/09 00:58:03;;;;;;;;;;;3.80;81.70;;;;;;5051306;28;20007;-75
2021/01/09 01:00:29;;;;;;;;;;;3.80;81.70;;;;;;5034050;28;19913;-75
2021/01/09 01:02:54;;;;;;;;;;;3.80;81.70;;;;;;5050392;28;19912;-75
2021/01/09 01:05:20;;;;;;;;;;;3.70;81.70;;;;;;5045047;28;19952;-75
2021/01/09 01:07:46;;;;;;;;;;;3.70;81.70;;;;;;5044747;28;19923;-75
2021/01/09 01:10:13;;;;;;;;;;;3.70;81.70;;;;;;5048768;28;20011;-74
2021/01/09 01:12:39;;;;;;;;;;;3.70;81.70;;;;;;5044170;28;19913;-74
2021/01/09 01:15:05;;;;;;;;;;;3.70;81.70;;;;;;5026009;28;19913;-74
2021/01/09 01:17:31;;;;;;;;;;;3.60;81.70;;;;;;5037341;28;20003;-74
2021/01/09 01:19:56;;;;;;;;;;;3.60;81.70;;;;;;5049002;28;19912;-76
2021/01/09 01:22:22;;;;;;;;;;;3.70;81.70;;;;;;5044166;28;20259;-74
2021/01/09 01:24:47;;;;;;;;;;;3.60;81.70;;;;;;5046315;28;20376;-74
2021/01/09 01:27:13;;;;;;;;;;;3.60;81.70;;;;;;5036607;28;20293;-76
2021/01/09 01:29:39;;;;;;;;;;;3.60;81.70;;;;;;5032224;28;19912;-75
2021/01/09 01:32:04;;;;;;;;;;;3.60;81.70;;;;;;5050230;28;19916;-75
2021/01/09 01:34:30;;;;;;;;;;;3.60;81.70;;;;;;5032061;28;19948;-75
2021/01/09 01:36:56;;;;;;;;;;;3.60;81.70;;;;;;5048192;28;19917;-74
2021/01/09 01:39:21;;;;;;;;;;;3.50;81.70;;;;;;5052755;28;19908;-74
2021/01/09 01:41:47;;;;;;;;;;;3.50;81.70;;;;;;5051064;28;19912;-74
2021/01/09 01:44:12;;;;;;;;;;;3.50;81.70;;;;;;5033835;28;19920;-74
2021/01/09 01:46:38;;;;;;;;;;;3.50;81.70;;;;;;5044827;28;20027;-74
2021/01/09 01:49:07;;;;;;;;;;;3.50;81.70;;;;;;5038598;28;19912;-74
2021/01/09 01:51:33;;;;;;;;;;;3.50;81.70;;;;;;5044663;28;20008;-74
2021/01/09 01:53:59;;;;;;;;;;;3.50;81.70;;;;;;5029226;28;19995;-74
2021/01/09 01:56:26;;;;;;;;;;;3.50;81.70;;;;;;5044814;28;19917;-75
2021/01/09 01:58:51;;;;;;;;;;;3.40;81.70;;;;;;5034477;28;20412;-75
2021/01/09 02:01:17;;;;;;;;;;;3.40;81.70;;;;;;5045140;28;19996;-74
2021/01/09 02:03:43;;;;;;;;;;;3.40;81.70;;;;;;5047669;28;19908;-74
2021/01/09 02:06:09;;;;;;;;;;;3.40;81.70;;;;;;5046682;28;20368;-74
2021/01/09 02:08:38;;;;;;;;;;;3.40;81.70;;;;;;5032761;28;19919;-74
2021/01/09 02:11:06;;;;;;;;;;;3.40;81.80;;;;;;5048543;28;19913;-74
2021/01/09 02:13:36;;;;;;;;;;;3.30;81.70;;;;;;5047330;28;19966;-75
2021/01/09 02:16:02;;;;;;;;;;;3.30;81.70;;;;;;5048914;28;19909;-76
2021/01/09 02:18:28;;;;;;;;;;;3.30;81.70;;;;;;5030977;28;20254;-74
2021/01/09 02:21:03;;;;;;;;;;;3.30;81.70;;;;;;5048409;28;20368;-74
2021/01/09 02:23:29;;;;;;;;;;;3.30;82.40;;;;;;5039124;28;19955;-74
2021/01/09 02:25:55;;;;;;;;;;;3.30;81.70;;;;;;5041592;28;19913;-74
2021/01/09 02:28:20;;;;;;;;;;;3.30;81.70;;;;;;5034002;28;20019;-74
2021/01/09 02:30:48;;;;;;;;;;;3.20;81.70;;;;;;5050403;28;20320;-75
2021/01/09 02:33:15;;;;;;;;;;;3.20;81.70;;;;;;5033676;28;19920;-74
2021/01/09 02:35:42;;;;;;;;;;;3.20;81.70;;;;;;5050004;28;19908;-74
2021/01/09 02:38:09;;;;;;;;;;;3.20;81.70;;;;;;5044020;28;19909;-74
2021/01/09 02:40:38;;;;;;;;;;;3.20;81.70;;;;;;5045466;28;19909;-74
2021/01/09 02:43:04;;;;;;;;;;;3.20;81.70;;;;;;5044164;28;19915;-74
2021/01/09 02:45:30;;;;;;;;;;;3.20;81.70;;;;;;5047685;28;19912;-74
2021/01/09 02:47:55;;;;;;;;;;;3.20;81.80;;;;;;5030515;28;20381;-77
2021/01/09 02:50:21;;;;;;;;;;;3.10;81.70;;;;;;5044932;28;20370;-77
2021/01/09 02:52:46;;;;;;;;;;;3.10;81.70;;;;;;5048255;28;20067;-75
2021/01/09 02:55:12;;;;;;;;;;;3.10;81.70;;;;;;5030051;28;20449;-75
2021/01/09 02:57:38;;;;;;;;;;;3.10;81.70;;;;;;5040730;28;19913;-75
2021/01/09 03:00:18;;;;;;;;;;;3.10;81.70;;;;;;5141118;27;20398;-78
2021/01/09 03:02:43;;;;;;;;;;;3.10;81.70;;;;;;5096017;28;19916;-75
2021/01/09 03:05:09;;;;;;;;;;;3.00;81.60;;;;;;5072516;28;19920;-75
2021/01/09 03:07:35;;;;;;;;;;;3.00;81.60;;;;;;5123077;28;19970;-75
2021/01/09 03:10:00;;;;;;;;;;;3.00;81.70;;;;;;5092616;28;19908;-75
2021/01/09 03:12:26;;;;;;;;;;;3.00;81.70;;;;;;5104738;28;19922;-75
2021/01/09 03:14:52;;;;;;;;;;;3.00;81.70;;;;;;5118709;27;19908;-75
2021/01/09 03:17:18;;;;;;;;;;;3.00;81.70;;;;;;5089813;28;19916;-76
2021/01/09 03:19:43;;;;;;;;;;;3.00;81.70;;;;;;5080798;28;19917;-75
2021/01/09 03:22:09;;;;;;;;;;;3.00;81.70;;;;;;5087170;28;20002;-75
2021/01/09 03:24:35;;;;;;;;;;;2.90;81.60;;;;;;5072858;28;19962;-75
2021/01/09 03:27:00;;;;;;;;;;;2.90;81.60;;;;;;5081404;28;19983;-76
2021/01/09 03:29:26;;;;;;;;;;;2.90;81.60;;;;;;5107301;28;19916;-75
2021/01/09 03:31:52;;;;;;;;;;;2.90;81.60;;;;;;5077595;28;20003;-75
2021/01/09 03:34:17;;;;;;;;;;;2.90;81.60;;;;;;5100256;28;20276;-75
2021/01/09 03:36:43;;;;;;;;;;;2.90;81.60;;;;;;5059767;28;19998;-75
2021/01/09 03:39:08;;;;;;;;;;;2.90;81.60;;;;;;5088185;28;19920;-75
2021/01/09 03:41:34;;;;;;;;;;;2.90;81.60;;;;;;5092069;28;19916;-75
2021/01/09 03:43:59;;;;;;;;;;;2.90;81.60;;;;;;5065025;28;19923;-75
2021/01/09 03:46:25;;;;;;;;;;;2.80;81.60;;;;;;5114182;28;19924;-75
2021/01/09 03:48:51;;;;;;;;;;;2.80;81.50;;;;;;5085577;28;19927;-75
2021/01/09 03:51:16;;;;;;;;;;;2.80;81.50;;;;;;5118349;28;19918;-75
2021/01/09 03:53:42;;;;;;;;;;;2.80;81.50;;;;;;5089981;28;19916;-75
2021/01/09 03:56:07;;;;;;;;;;;2.80;81.50;;;;;;5105018;28;19916;-76
2021/01/09 03:58:33;;;;;;;;;;;2.80;81.60;;;;;;5098363;28;20012;-79
2021/01/09 04:00:59;;;;;;;;;;;2.70;81.50;;;;;;5099408;28;19927;-75
2021/01/09 04:03:24;;;;;;;;;;;2.80;81.60;;;;;;5043851;28;19975;-74
2021/01/09 04:05:50;;;;;;;;;;;2.80;81.60;;;;;;5089072;28;20020;-75
2021/01/09 04:08:15;;;;;;;;;;;2.70;81.50;;;;;;5088465;28;19912;-76
2021/01/09 04:10:41;;;;;;;;;;;2.70;81.50;;;;;;5094951;28;19917;-75
2021/01/09 04:13:07;;;;;;;;;;;2.70;81.50;;;;;;5082001;28;19939;-74
2021/01/09 04:15:32;;;;;;;;;;;2.70;81.60;;;;;;5047586;28;20284;-75
2021/01/09 04:17:58;;;;;;;;;;;2.70;81.50;;;;;;5076085;28;19917;-74
2021/01/09 04:20:23;;;;;;;;;;;2.70;81.50;;;;;;5071160;28;20023;-75
2021/01/09 04:22:49;;;;;;;;;;;2.70;81.50;;;;;;5098691;27;19921;-75
2021/01/09 04:25:14;;;;;;;;;;;2.70;81.90;;;;;;5092636;28;20379;-74
2021/01/09 04:27:40;;;;;;;;;;;2.60;81.50;;;;;;5066412;28;19999;-75
2021/01/09 04:30:06;;;;;;;;;;;2.60;81.50;;;;;;5069606;28;19955;-75
2021/01/09 04:32:32;;;;;;;;;;;2.60;81.50;;;;;;5078747;28;20387;-75
2021/01/09 04:34:58;;;;;;;;;;;2.60;81.50;;;;;;5099471;28;19921;-75
2021/01/09 04:37:24;;;;;;;;;;;2.60;81.50;;;;;;5077926;28;19935;-75
2021/01/09 04:39:49;;;;;;;;;;;2.60;81.50;;;;;;5104277;27;19921;-75
2021/01/09 04:42:15;;;;;;;;;;;2.60;81.50;;;;;;5085449;28;19916;-74
2021/01/09 04:44:41;;;;;;;;;;;2.60;81.50;;;;;;5094327;28;20487;-74
2021/01/09 04:47:08;;;;;;;;;;;2.60;81.50;;;;;;5057582;28;20007;-74
2021/01/09 04:49:33;;;;;;;;;;;2.60;81.60;;;;;;5080531;28;20357;-74
2021/01/09 04:52:00;;;;;;;;;;;2.50;81.50;;;;;;5121816;27;19930;-75
2021/01/09 04:54:25;;;;;;;;;;;2.50;81.50;;;;;;5096394;28;20686;-74
2021/01/09 04:56:52;;;;;;;;;;;2.50;81.50;;;;;;5075072;28;19920;-74
2021/01/09 04:59:19;;;;;;;;;;;2.50;81.50;;;;;;5076779;28;19920;-74
2021/01/09 05:01:46;;;;;;;;;;;2.50;81.50;;;;;;5104834;28;19923;-75
2021/01/09 05:04:15;;;;;;;;;;;2.50;81.50;;;;;;5059746;28;19974;-74
2021/01/09 05:06:42;;;;;;;;;;;2.50;81.50;;;;;;5078354;28;19913;-74
2021/01/09 05:09:08;;;;;;;;;;;2.50;81.50;;;;;;5105136;28;20369;-74
2021/01/09 05:11:34;;;;;;;;;;;2.40;81.40;;;;;;5067708;28;20097;-74
2021/01/09 05:14:01;;;;;;;;;;;2.50;81.50;;;;;;5092514;28;20323;-74
2021/01/09 05:16:26;;;;;;;;;;;2.50;81.50;;;;;;5066857;28;20361;-75
2021/01/09 05:18:52;;;;;;;;;;;2.40;81.40;;;;;;5072224;28;19916;-75
2021/01/09 05:21:18;;;;;;;;;;;2.40;81.40;;;;;;5071963;28;19928;-75
2021/01/09 05:23:53;;;;;;;;;;;2.40;81.40;;;;;;5072581;28;19955;-74
2021/01/09 05:26:19;;;;;;;;;;;2.40;81.40;;;;;;5070339;28;19951;-76
2021/01/09 05:28:53;;;;;;;;;;;2.40;81.40;;;;;;5088955;28;19917;-74
2021/01/09 05:31:20;;;;;;;;;;;2.40;81.40;;;;;;5090867;28;19920;-75
2021/01/09 05:33:45;;;;;;;;;;;2.40;81.40;;;;;;5089168;28;20277;-77
2021/01/09 05:36:11;;;;;;;;;;;2.40;81.40;;;;;;5067570;28;19912;-75
2021/01/09 05:38:37;;;;;;;;;;;2.40;81.40;;;;;;5069626;28;19917;-75
2021/01/09 05:41:04;;;;;;;;;;;2.40;81.40;;;;;;5073784;28;20058;-75
2021/01/09 05:43:30;;;;;;;;;;;2.40;81.40;;;;;;5070068;28;20292;-75
2021/01/09 05:45:56;;;;;;;;;;;2.40;81.40;;;;;;5073051;28;19920;-75
2021/01/09 05:48:21;;;;;;;;;;;2.30;81.30;;;;;;5061386;28;19913;-76
2021/01/09 05:50:47;;;;;;;;;;;2.40;81.30;;;;;;5031196;28;19917;-75
2021/01/09 05:53:33;;;;;;;;;;;2.40;81.40;;;;;;5059463;28;20273;-75
2021/01/09 05:55:59;;;;;;;;;;;2.30;81.30;;;;;;5078447;28;19912;-74
2021/01/09 05:58:24;;;;;;;;;;;2.40;81.30;;;;;;5062451;28;19958;-74
2021/01/09 06:00:50;;;;;;;;;;;2.40;81.30;;;;;;5076504;28;19925;-75
2021/01/09 06:03:21;;;;;;;;;;;2.30;81.30;;;;;;5095324;28;20360;-75
2021/01/09 06:05:50;;;;;;;;;;;2.30;81.30;;;;;;5096115;27;19920;-75
2021/01/09 06:08:18;;;;;;;;;;;2.30;81.30;;;;;;5103243;28;19912;-75
2021/01/09 06:10:46;;;;;;;;;;;2.30;81.30;;;;;;5067550;28;19913;-77
2021/01/09 06:13:12;;;;;;;;;;;2.30;81.30;;;;;;5072027;28;19935;-75
2021/01/09 06:15:40;;;;;;;;;;;2.30;81.30;;;;;;5071171;28;19999;-74
2021/01/09 06:18:06;;;;;;;;;;;2.30;81.30;;;;;;5074494;28;20031;-75
2021/01/09 06:20:31;;;;;;;;;;;2.30;81.30;;;;;;5081424;28;20015;-74
2021/01/09 06:22:58;;;;;;;;;;;2.30;81.30;;;;;;5071859;28;20598;-74
2021/01/09 06:25:24;;;;;;;;;;;2.30;81.30;;;;;;5086852;28;20471;-75
2021/01/09 06:27:52;;;;;;;;;;;2.30;81.30;;;;;;5070689;28;19917;-75
2021/01/09 06:30:19;;;;;;;;;;;2.30;81.30;;;;;;5065462;28;19919;-75
2021/01/09 06:32:49;;;;;;;;;;;2.20;81.20;;;;;;5069195;28;19918;-74
2021/01/09 06:35:15;;;;;;;;;;;2.30;81.30;;;;;;5071913;28;19912;-74
2021/01/09 06:37:40;;;;;;;;;;;2.20;81.20;;;;;;5081715;28;19935;-74
2021/01/09 06:40:07;;;;;;;;;;;2.20;81.20;;;;;;5101254;28;19924;-77
2021/01/09 06:42:33;;;;;;;;;;;2.20;81.20;;;;;;5088007;28;19963;-74
2021/01/09 06:44:59;;;;;;;;;;;2.20;81.20;;;;;;5052795;28;19912;-74
2021/01/09 06:47:26;;;;;;;;;;;2.20;81.20;;;;;;5083473;28;20349;-75
2021/01/09 06:49:52;;;;;;;;;;;2.20;81.20;;;;;;5078526;28;19913;-75
2021/01/09 06:52:17;;;;;;;;;;;2.20;81.20;;;;;;5082520;28;20388;-75
2021/01/09 06:54:44;;;;;;;;;;;2.20;81.20;;;;;;5072217;28;20326;-76
2021/01/09 06:57:14;;;;;;;;;;;2.20;81.20;;;;;;5071055;28;19921;-75
2021/01/09 06:59:41;;;;;;;;;;;2.20;81.20;;;;;;5049441;28;19925;-75
2021/01/09 07:02:14;;;;;;;;;;;2.20;81.20;;;;;;5099374;28;19920;-74
2021/01/09 07:04:49;;;;;;;;;;;2.20;81.20;;;;;;5083307;28;20007;-75
2021/01/09 07:07:23;;;;;;;;;;;2.20;81.20;;;;;;5079735;28;19966;-75
2021/01/09 07:09:49;;;;;;;;;;;2.20;81.20;;;;;;5075637;28;20353;-74
2021/01/09 07:12:15;;;;;;;;;;;2.20;81.20;;;;;;5102297;28;19919;-75
2021/01/09 07:14:41;;;;;;;;;;;2.10;81.10;;;;;;5071276;28;19916;-75
2021/01/09 07:17:09;;;;;;;;;;;2.20;81.20;;;;;;5054173;28;19921;-74
2021/01/09 07:19:37;;;;;;;;;;;2.10;81.10;;;;;;5103882;28;19977;-74
2021/01/09 07:22:03;;;;;;;;;;;2.20;81.20;;;;;;5070114;28;19916;-74
2021/01/09 07:24:29;;;;;;;;;;;2.10;81.10;;;;;;5088957;28;19917;-74
2021/01/09 07:26:55;;;;;;;;;;;2.10;81.10;;;;;;5037136;28;20442;-75
2021/01/09 07:29:26;;;;;;;;;;;2.10;81.10;;;;;;5071924;28;19916;-74
2021/01/09 07:31:52;;;;;;;;;;;2.10;81.10;;;;;;5087902;28;19934;-74
2021/01/09 07:34:20;;;;;;;;;;;2.10;81.10;;;;;;5056021;28;20365;-77
2021/01/09 07:36:52;;;;;;;;;;;2.10;81.10;;;;;;5085969;28;19912;-74
2021/01/09 07:39:22;;;;;;;;;;;2.10;81.10;;;;;;5076067;28;20016;-74
2021/01/09 07:41:47;;;;;;;;;;;2.10;81.10;;;;;;5084642;28;19916;-74
2021/01/09 07:44:17;;;;;;;;;;;2.10;81.10;;;;;;5080606;28;20726;-75
2021/01/09 07:46:49;;;;;;;;;;;2.10;81.10;;;;;;5081758;28;19912;-74
2021/01/09 07:49:24;;;;;;;;;;;2.10;81.10;;;;;;5102054;28;19958;-77
2021/01/09 07:51:53;;;;;;;;;;;2.10;81.10;;;;;;5093170;27;19923;-74
2021/01/09 07:54:29;;;;;;;;;;;2.10;81.10;;;;;;5089854;28;19921;-74
2021/01/09 07:56:55;;;;;;;;;;;2.10;81.00;;;;;;5075519;28;19919;-79
2021/01/09 07:59:20;;;;;;;;;;;2.10;81.00;;;;;;5080952;28;19920;-75
2021/01/09 08:01:46;;;;;;;;;;;2.10;81.00;;;;;;5076313;28;19916;-75
2021/01/09 08:04:12;;;;;;;;;;;2.10;81.00;;;;;;5061616;28;20276;-75
2021/01/09 08:06:41;;;;;;;;;;;2.10;81.00;;;;;;5084990;28;19912;-75
2021/01/09 08:09:07;;;;;;;;;;;2.10;81.00;;;;;;5075013;28;19924;-75
2021/01/09 08:11:46;;;;;;;;;;;2.10;81.00;;;;;;5052542;28;20364;-75
2021/01/09 08:14:12;;;;;;;;;;;2.10;81.00;;;;;;5083006;28;19995;-75
2021/01/09 08:16:38;;;;;;;;;;;2.10;81.00;;;;;;5075915;28;20276;-75
2021/01/09 08:19:12;;;;;;;;;;;2.20;81.00;;;;;;5071262;28;19928;-75
2021/01/09 08:21:38;;;;;;;;;;;2.10;81.00;;;;;;5062780;28;19951;-75
2021/01/09 08:24:04;;;;;;;;;;;2.10;81.00;;;;;;5059927;28;19955;-75
2021/01/09 08:26:31;;;;;;;;;;;2.10;81.00;;;;;;5076002;28;19920;-75
2021/01/09 08:28:58;;;;;;;;;;;2.10;81.00;;;;;;5085901;28;20368;-75
2021/01/09 08:31:27;;;;;;;;;;;2.20;81.00;;;;;;5072750;28;19958;-75
2021/01/09 08:33:52;;;;;;;;;;;2.20;81.00;;;;;;5078315;28;19924;-74
2021/01/09 08:36:21;;;;;;;;;;;2.20;80.90;;;;;;5072946;28;19913;-75
2021/01/09 08:38:48;;;;;;;;;;;2.20;80.90;;;;;;5084807;28;19916;-75
2021/01/09 08:41:14;;;;;;;;;;;2.20;80.90;;;;;;5085687;28;19916;-75
2021/01/09 08:43:40;;;;;;;;;;;2.20;80.90;;;;;;5075607;28;19927;-75
2021/01/09 08:46:05;;;;;;;;;;;2.20;80.90;;;;;;5055330;28;19951;-75
2021/01/09 08:48:36;;;;;;;;;;;2.20;80.90;;;;;;5075402;28;19961;-75
2021/01/09 08:51:03;;;;;;;;;;;2.20;80.90;;;;;;5073434;28;20015;-76
2021/01/09 08:53:36;;;;;;;;;;;2.20;80.90;;;;;;5084400;28;20007;-76
2021/01/09 08:56:03;;;;;;;;;;;2.20;80.90;;;;;;5073613;28;19920;-76
2021/01/09 08:58:32;;;;;;;;;;;2.20;80.90;;;;;;5072140;28;20370;-75
2021/01/09 09:01:02;;;;;;;;;;;2.20;80.90;;;;;;5077857;28;19913;-75
2021/01/09 09:03:29;;;;;;;;;;;2.30;80.90;;;;;;5073245;28;20380;-77
2021/01/09 09:05:55;;;;;;;;;;;2.20;80.90;;;;;;5080717;28;19978;-75
2021/01/09 09:08:21;;;;;;;;;;;2.20;80.80;;;;;;5047732;28;20387;-75
2021/01/09 09:10:48;;;;;;;;;;;2.30;80.90;;;;;;5073272;28;20023;-74
2021/01/09 09:13:14;;;;;;;;;;;2.30;80.90;;;;;;5062175;28;19913;-75
2021/01/09 09:15:40;;;;;;;;;;;2.30;80.90;;;;;;5087676;28;19916;-78
2021/01/09 09:18:06;;;;;;;;;;;2.30;80.80;;;;;;5088083;28;19921;-75
2021/01/09 09:20:33;;;;;;;;;;;2.30;80.80;;;;;;5075283;28;19971;-75
2021/01/09 09:23:12;;;;;;;;;;;2.30;80.80;;;;;;5078539;28;19958;-74
2021/01/09 09:25:38;;;;;;;;;;;2.30;80.70;;;;;;5073162;28;20289;-74
2021/01/09 09:28:04;;;;;;;;;;;2.30;80.70;;;;;;5086812;28;19921;-77
2021/01/09 09:30:29;;;;;;;;;;;2.30;80.80;;;;;;5086368;28;19943;-74
2021/01/09 09:32:55;;;;;;;;;;;2.40;80.80;;;;;;5084507;28;19913;-75
2021/01/09 09:35:21;;;;;;;;;;;2.40;80.70;;;;;;5072235;28;19955;-75
2021/01/09 09:37:47;;;;;;;;;;;2.40;80.70;;;;;;5068235;28;19958;-75
2021/01/09 09:40:20;;;;;;;;;;;2.40;80.70;;;;;;5073351;28;19923;-75
2021/01/09 09:42:46;;;;;;;;;;;2.40;80.70;;;;;;5073368;28;19916;-76
2021/01/09 09:45:11;;;;;;;;;;;2.50;80.80;;;;;;5085932;28;20070;-77
2021/01/09 09:47:37;;;;;;;;;;;2.50;80.70;;;;;;5080931;28;19916;-78
2021/01/09 09:50:03;;;;;;;;;;;2.50;80.70;;;;;;5075024;28;19966;-77
2021/01/09 09:52:28;;;;;;;;;;;2.50;80.70;;;;;;5098403;27;20376;-76
2021/01/09 09:55:04;;;;;;;;;;;2.50;80.70;;;;;;5078064;28;20009;-77
2021/01/09 09:57:30;;;;;;;;;;;2.50;80.70;;;;;;5062615;28;19924;-76
2021/01/09 10:00:06;;;;;;;;;;;2.50;80.70;;;;;;5105651;28;19928;-76
2021/01/09 10:02:51;;;;;;;;;;;2.50;80.70;;;;;;5060548;28;19912;-77
2021/01/09 10:05:17;;;;;;;;;;;2.50;80.70;;;;;;5059523;28;20066;-77
2021/01/09 10:07:42;;;;;;;;;;;2.60;80.70;;;;;;5055519;28;20313;-76
2021/01/09 10:10:18;;;;;;;;;;;2.60;80.70;;;;;;5095257;28;20579;-79
2021/01/09 10:12:54;;;;;;;;;;;2.60;80.70;;;;;;5074098;28;19912;-75
2021/01/09 10:15:20;;;;;;;;;;;2.60;80.70;;;;;;5103158;28;19916;-75
2021/01/09 10:17:50;;;;;;;;;;;2.60;80.70;;;;;;5093246;28;19923;-75
2021/01/09 10:20:15;;;;;;;;;;;2.60;80.70;;;;;;5072076;28;19956;-74
2021/01/09 10:22:42;;;;;;;;;;;2.70;80.70;;;;;;5083434;28;19955;-75
2021/01/09 10:25:08;;;;;;;;;;;2.70;80.70;;;;;;5072612;28;19923;-78
2021/01/09 10:27:34;;;;;;;;;;;2.70;80.70;;;;;;5071822;28;19916;-76
2021/01/09 10:29:59;;;;;;;;;;;2.70;80.70;;;;;;5086421;28;19994;-76
2021/01/09 10:32:25;;;;;;;;;;;2.70;80.70;;;;;;5080062;28;19912;-75
2021/01/09 10:34:50;;;;;;;;;;;2.70;80.70;;;;;;5084289;28;19962;-74
2021/01/09 10:37:16;;;;;;;;;;;2.70;80.70;;;;;;5088469;28;19912;-74
2021/01/09 10:39:42;;;;;;;;;;;2.70;80.70;;;;;;5072129;28;19920;-76
2021/01/09 10:42:07;;;;;;;;;;;2.80;80.80;;;;;;5042605;28;19916;-75
2021/01/09 10:44:33;;;;;;;;;;;2.80;80.80;;;;;;5059524;28;20399;-75
2021/01/09 10:46:58;;;;;;;;;;;2.80;80.80;;;;;;5085987;28;19913;-75
2021/01/09 10:49:24;;;;;;;;;;;2.80;80.80;;;;;;5068860;28;19948;-78
2021/01/09 10:51:50;;;;;;;;;;;2.80;80.70;;;;;;5083284;28;19959;-75
2021/01/09 10:54:15;;;;;;;;;;;2.80;80.70;;;;;;5082251;28;19917;-75
2021/01/09 10:56:45;;;;;;;;;;;2.80;80.80;;;;;;5050382;28;20353;-75
2021/01/09 10:59:11;;;;;;;;;;;2.90;80.80;;;;;;5085004;28;19967;-75
2021/01/09 11:01:36;;;;;;;;;;;2.90;80.80;;;;;;5106378;28;19920;-75
2021/01/09 11:04:02;;;;;;;;;;;2.90;80.70;;;;;;5085131;28;19917;-75
2021/01/09 11:06:27;;;;;;;;;;;2.90;80.80;;;;;;5062875;28;19917;-74
2021/01/09 11:08:53;;;;;;;;;;;2.90;80.80;;;;;;5074791;28;20041;-74
2021/01/09 11:11:20;;;;;;;;;;;2.90;80.70;;;;;;5093543;28;19923;-75
2021/01/09 11:13:46;;;;;;;;;;;2.90;80.70;;;;;;5103157;28;19921;-76
2021/01/09 11:16:12;;;;;;;;;;;2.90;80.70;;;;;;5069811;28;20038;-76
2021/01/09 11:18:37;;;;;;;;;;;3.00;80.80;;;;;;5054729;28;20002;-76
2021/01/09 11:21:03;;;;;;;;;;;3.00;80.80;;;;;;5069805;28;20357;-76
2021/01/09 11:23:29;;;;;;;;;;;3.00;80.80;;;;;;5092003;28;19919;-75
2021/01/09 11:25:55;;;;;;;;;;;3.10;81.50;;;;;;5077488;28;19965;-76
2021/01/09 11:28:20;;;;;;;;;;;3.00;80.70;;;;;;5060355;28;19947;-76
2021/01/09 11:30:46;;;;;;;;;;;3.10;80.80;;;;;;5101320;28;20015;-76
2021/01/09 11:33:12;;;;;;;;;;;3.10;80.80;;;;;;5062178;28;20390;-75
2021/01/09 11:35:38;;;;;;;;;;;3.10;80.80;;;;;;5089593;28;20323;-78
2021/01/09 11:38:04;;;;;;;;;;;3.10;80.80;;;;;;5074543;28;19916;-76
2021/01/09 11:40:29;;;;;;;;;;;3.10;80.80;;;;;;5079290;28;19929;-75
2021/01/09 11:42:55;;;;;;;;;;;3.10;80.80;;;;;;5055440;28;20371;-75
2021/01/09 11:45:21;;;;;;;;;;;3.20;80.80;;;;;;5086963;28;19986;-76
2021/01/09 11:47:46;;;;;;;;;;;3.20;80.80;;;;;;5072367;28;19912;-75
2021/01/09 11:50:12;;;;;;;;;;;3.20;80.80;;;;;;5074872;28;19912;-76
2021/01/09 11:52:38;;;;;;;;;;;3.20;80.80;;;;;;5091776;28;19920;-75
2021/01/09 11:55:04;;;;;;;;;;;3.20;80.80;;;;;;5089385;28;19916;-76
2021/01/09 11:57:30;;;;;;;;;;;3.30;80.80;;;;;;5062509;28;20387;-76
2021/01/09 11:59:56;;;;;;;;;;;3.30;80.80;;;;;;5073939;28;19920;-77
2021/01/09 12:02:21;;;;;;;;;;;3.30;80.80;;;;;;5086243;28;20365;-75
2021/01/09 12:04:47;;;;;;;;;;;3.30;80.80;;;;;;5090185;28;19916;-75
2021/01/09 12:07:12;;;;;;;;;;;3.30;80.80;;;;;;5061722;28;19917;-75
2021/01/09 12:09:38;;;;;;;;;;;3.30;80.80;;;;;;5074331;28;20458;-75
2021/01/09 12:12:04;;;;;;;;;;;3.30;80.80;;;;;;5091231;28;20372;-76
2021/01/09 12:14:30;;;;;;;;;;;3.40;80.90;;;;;;5091212;28;19927;-75
2021/01/09 12:16:58;;;;;;;;;;;3.40;80.90;;;;;;5073687;28;20007;-77
2021/01/09 12:19:24;;;;;;;;;;;3.40;80.90;;;;;;5091354;28;19924;-76
2021/01/09 12:21:51;;;;;;;;;;;3.40;80.90;;;;;;5056637;28;19926;-76
2021/01/09 12:24:17;;;;;;;;;;;3.50;80.90;;;;;;5099238;28;19923;-76
2021/01/09 12:26:42;;;;;;;;;;;3.50;80.90;;;;;;5073574;28;19916;-75
2021/01/09 12:29:08;;;;;;;;;;;3.50;80.90;;;;;;5097651;28;19948;-76
2021/01/09 12:31:34;;;;;;;;;;;3.50;80.90;;;;;;5092288;28;19920;-76
2021/01/09 12:34:00;;;;;;;;;;;3.50;80.90;;;;;;5075451;28;19919;-75
2021/01/09 12:36:26;;;;;;;;;;;3.60;80.90;;;;;;5107115;27;19995;-76
2021/01/09 12:38:52;;;;;;;;;;;3.60;80.90;;;;;;5063297;28;19995;-76
2021/01/09 12:41:17;;;;;;;;;;;3.60;80.90;;;;;;5084492;28;19920;-76
2021/01/09 12:43:43;;;;;;;;;;;3.60;80.90;;;;;;5083415;28;20250;-76
2021/01/09 12:46:08;;;;;;;;;;;3.70;80.90;;;;;;5052306;28;20260;-76
2021/01/09 12:48:34;;;;;;;;;;;3.70;80.90;;;;;;5078584;28;19962;-75
2021/01/09 12:51:00;;;;;;;;;;;3.70;80.90;;;;;;5073909;28;19916;-77
2021/01/09 12:53:25;;;;;;;;;;;3.70;80.90;;;;;;5076718;28;19920;-77
2021/01/09 12:55:51;;;;;;;;;;;3.70;80.90;;;;;;5054987;28;19913;-76
2021/01/09 12:58:16;;;;;;;;;;;3.80;80.90;;;;;;5093598;28;19920;-76
2021/01/09 13:00:42;;;;;;;;;;;3.80;80.90;;;;;;5067606;28;19929;-76
2021/01/09 13:03:08;;;;;;;;;;;3.80;80.90;;;;;;5089268;28;19917;-76
2021/01/09 13:05:33;;;;;;;;;;;3.90;80.90;;;;;;5084664;28;19920;-77
2021/01/09 13:07:59;;;;;;;;;;;3.90;80.80;;;;;;5076324;28;19947;-77
2021/01/09 13:10:24;;;;;;;;;;;3.90;80.80;;;;;;5092831;28;20331;-81
2021/01/09 13:12:50;;;;;;;;;;;4.00;80.70;;;;;;5081043;28;19934;-76
2021/01/09 13:15:16;;;;;;;;;;;4.00;80.80;;;;;;5063848;28;20015;-76
2021/01/09 13:17:41;;;;;;;;;;;4.00;80.80;;;;;;5066499;28;19916;-76
2021/01/09 13:20:07;;;;;;;;;;;4.00;80.70;;;;;;5082986;28;20022;-76
2021/01/09 13:22:33;;;;;;;;;;;4.10;80.80;;;;;;5062057;28;19919;-77
2021/01/09 13:24:58;;;;;;;;;;;4.10;80.80;;;;;;5080862;28;20328;-76
2021/01/09 13:27:24;;;;;;;;;;;4.10;80.80;;;;;;5081555;28;19986;-76
2021/01/09 13:29:49;;;;;;;;;;;4.10;80.80;;;;;;5076834;28;19927;-76
2021/01/09 13:32:22;;;;;;;;;;;4.20;80.80;;;;;;5115898;27;20367;-76
2021/01/09 13:34:48;;;;;;;;;;;4.20;80.70;;;;;;5089965;28;19939;-77
2021/01/09 13:37:15;;;;;;;;;;;4.30;80.80;;;;;;5098131;28;19913;-78
2021/01/09 13:39:41;;;;;;;;;;;4.20;80.80;;;;;;5067713;28;19925;-77
2021/01/09 13:42:06;;;;;;;;;;;4.30;80.90;;;;;;5069319;28;19919;-77
2021/01/09 13:44:32;;;;;;;;;;;4.30;80.90;;;;;;5070930;28;19913;-77
2021/01/09 13:46:58;;;;;;;;;;;4.30;80.90;;;;;;5089204;28;20000;-76
2021/01/09 13:49:23;;;;;;;;;;;4.40;80.90;;;;;;5066512;28;19966;-78
2021/01/09 13:51:49;;;;;;;;;;;4.40;80.90;;;;;;5045172;28;19912;-77
2021/01/09 13:54:14;;;;;;;;;;;4.40;80.90;;;;;;5053943;28;19945;-76
2021/01/09 13:56:41;;;;;;;;;;;4.40;80.90;;;;;;5080813;28;20265;-77
2021/01/09 13:59:11;;;;;;;;;;;4.50;80.90;;;;;;5067073;28;19924;-77
2021/01/09 14:01:36;;;;;;;;;;;4.50;80.90;;;;;;5066219;28;19939;-77
2021/01/09 14:04:02;;;;;;;;;;;4.50;80.90;;;;;;5058039;28;19917;-76
2021/01/09 14:06:28;;;;;;;;;;;4.60;80.90;;;;;;5072502;28;19999;-78
2021/01/09 14:08:54;;;;;;;;;;;4.60;80.90;;;;;;5105477;28;20015;-77
2021/01/09 14:11:20;;;;;;;;;;;4.60;80.80;;;;;;5073358;28;19952;-77
2021/01/09 14:13:46;;;;;;;;;;;4.70;80.90;;;;;;5083238;28;19958;-77
2021/01/09 14:16:17;;;;;;;;;;;4.70;80.90;;;;;;5071945;28;19916;-75
2021/01/09 14:18:44;;;;;;;;;;;4.70;80.90;;;;;;5081109;28;19952;-77
2021/01/09 14:21:09;;;;;;;;;;;4.80;81.00;;;;;;5071820;28;19927;-76
2021/01/09 14:23:35;;;;;;;;;;;4.80;80.90;;;;;;5096850;28;19917;-78
2021/01/09 14:26:00;;;;;;;;;;;4.80;80.90;;;;;;5106015;27;19960;-76
2021/01/09 14:28:26;;;;;;;;;;;4.90;81.00;;;;;;5066719;28;19917;-76